sensor_id;sensor_type;location;lat;lon;timestamp;P1;durP1;ratioP1;P2;durP2;ratioP2
11418;SDS011;32800;44.876;13.880;2023-05-01T00:01:01;1.47;;;1.37;;
11418;SDS011;32800;44.876;13.880;2023-05-01T00:03:30;1.77;;;1.63;;
11418;SDS011;32800;44.876;13.880;2023-05-01T00:05:59;1.77;;;1.67;;
11418;SDS011;32800;44.876;13.880;2023-05-01T00:08:26;1.60;;;1.50;;
11418;SDS011;32800;44.876;13.880;2023-05-01T00:10:51;1.70;;;1.60;;
11418;SDS011;32800;44.876;13.880;2023-05-01T00:13:17;2.33;;;1.63;;
11418;SDS011;32800;44.876;13.880;2023-05-01T00:15:46;1.60;;;1.50;;
11418;SDS011;32800;44.876;13.880;2023-05-01T00:18:12;1.50;;;1.40;;
11418;SDS011;32800;44.876;13.880;2023-05-01T00:20:37;1.70;;;1.60;;
11418;SDS011;32800;44.876;13.880;2023-05-01T00:23:03;1.57;;;1.47;;
11418;SDS011;32800;44.876;13.880;2023-05-01T00:25:29;1.60;;;1.47;;
11418;SDS011;32800;44.876;13.880;2023-05-01T00:27:55;1.60;;;1.50;;
11418;SDS011;32800;44.876;13.880;2023-05-01T00:30:21;1.63;;;1.30;;
11418;SDS011;32800;44.876;13.880;2023-05-01T00:32:46;2.13;;;1.50;;
11418;SDS011;32800;44.876;13.880;2023-05-01T00:35:12;1.87;;;1.63;;
11418;SDS011;32800;44.876;13.880;2023-05-01T00:37:37;3.00;;;1.83;;
11418;SDS011;32800;44.876;13.880;2023-05-01T00:40:03;1.70;;;1.60;;
11418;SDS011;32800;44.876;13.880;2023-05-01T00:42:36;1.60;;;1.50;;
11418;SDS011;32800;44.876;13.880;2023-05-01T00:45:04;1.60;;;1.50;;
11418;SDS011;32800;44.876;13.880;2023-05-01T00:47:30;2.03;;;1.80;;
11418;SDS011;32800;44.876;13.880;2023-05-01T00:49:58;2.10;;;1.47;;
11418;SDS011;32800;44.876;13.880;2023-05-01T00:52:23;1.53;;;1.43;;
11418;SDS011;32800;44.876;13.880;2023-05-01T00:54:50;1.77;;;1.60;;
11418;SDS011;32800;44.876;13.880;2023-05-01T00:57:19;1.70;;;1.60;;
11418;SDS011;32800;44.876;13.880;2023-05-01T00:59:45;2.47;;;1.70;;
11418;SDS011;32800;44.876;13.880;2023-05-01T01:02:11;1.77;;;1.63;;
11418;SDS011;32800;44.876;13.880;2023-05-01T01:04:39;3.00;;;1.60;;
11418;SDS011;32800;44.876;13.880;2023-05-01T01:15:28;2.10;;;1.50;;
11418;SDS011;32800;44.876;13.880;2023-05-01T01:21:06;1.80;;;1.70;;
11418;SDS011;32800;44.876;13.880;2023-05-01T01:34:51;1.73;;;1.63;;
11418;SDS011;32800;44.876;13.880;2023-05-01T01:37:22;1.50;;;1.40;;
11418;SDS011;32800;44.876;13.880;2023-05-01T01:39:53;1.90;;;1.67;;
11418;SDS011;32800;44.876;13.880;2023-05-01T01:42:23;1.73;;;1.60;;
11418;SDS011;32800;44.876;13.880;2023-05-01T01:44:51;1.77;;;1.67;;
11418;SDS011;32800;44.876;13.880;2023-05-01T01:47:18;1.67;;;1.57;;
11418;SDS011;32800;44.876;13.880;2023-05-01T01:49:48;1.50;;;1.40;;
11418;SDS011;32800;44.876;13.880;2023-05-01T01:52:14;2.37;;;1.73;;
11418;SDS011;32800;44.876;13.880;2023-05-01T01:54:43;2.00;;;1.70;;
11418;SDS011;32800;44.876;13.880;2023-05-01T01:57:12;2.03;;;1.63;;
11418;SDS011;32800;44.876;13.880;2023-05-01T01:59:39;1.70;;;1.60;;
11418;SDS011;32800;44.876;13.880;2023-05-01T02:02:06;1.50;;;1.40;;
11418;SDS011;32800;44.876;13.880;2023-05-01T02:04:32;1.80;;;1.70;;
11418;SDS011;32800;44.876;13.880;2023-05-01T02:06:58;1.30;;;1.20;;
11418;SDS011;32800;44.876;13.880;2023-05-01T02:09:25;1.43;;;1.33;;
11418;SDS011;32800;44.876;13.880;2023-05-01T02:11:53;1.57;;;1.47;;
11418;SDS011;32800;44.876;13.880;2023-05-01T02:14:21;1.67;;;1.57;;
11418;SDS011;32800;44.876;13.880;2023-05-01T02:16:50;1.77;;;1.60;;
11418;SDS011;32800;44.876;13.880;2023-05-01T02:19:16;1.60;;;1.50;;
11418;SDS011;32800;44.876;13.880;2023-05-01T02:21:43;1.70;;;1.60;;
11418;SDS011;32800;44.876;13.880;2023-05-01T02:24:09;1.57;;;1.47;;
11418;SDS011;32800;44.876;13.880;2023-05-01T02:26:37;1.60;;;1.50;;
11418;SDS011;32800;44.876;13.880;2023-05-01T02:29:06;1.60;;;1.50;;
11418;SDS011;32800;44.876;13.880;2023-05-01T02:31:32;1.70;;;1.60;;
11418;SDS011;32800;44.876;13.880;2023-05-01T02:33:58;1.60;;;1.50;;
11418;SDS011;32800;44.876;13.880;2023-05-01T02:36:23;1.50;;;1.40;;
11418;SDS011;32800;44.876;13.880;2023-05-01T02:38:49;1.87;;;1.60;;
11418;SDS011;32800;44.876;13.880;2023-05-01T02:41:15;1.80;;;1.70;;
11418;SDS011;32800;44.876;13.880;2023-05-01T02:43:41;1.70;;;1.60;;
11418;SDS011;32800;44.876;13.880;2023-05-01T02:46:08;1.57;;;1.47;;
11418;SDS011;32800;44.876;13.880;2023-05-01T02:48:34;1.63;;;1.53;;
11418;SDS011;32800;44.876;13.880;2023-05-01T02:51:01;1.50;;;1.40;;
11418;SDS011;32800;44.876;13.880;2023-05-01T02:53:28;1.57;;;1.47;;
11418;SDS011;32800;44.876;13.880;2023-05-01T02:55:54;1.57;;;1.47;;
11418;SDS011;32800;44.876;13.880;2023-05-01T02:58:20;1.50;;;1.40;;
11418;SDS011;32800;44.876;13.880;2023-05-01T03:00:47;1.60;;;1.50;;
11418;SDS011;32800;44.876;13.880;2023-05-01T03:03:13;1.40;;;1.30;;
11418;SDS011;32800;44.876;13.880;2023-05-01T03:05:40;1.50;;;1.40;;
11418;SDS011;32800;44.876;13.880;2023-05-01T03:08:06;1.63;;;1.53;;
11418;SDS011;32800;44.876;13.880;2023-05-01T03:10:32;1.53;;;1.43;;
11418;SDS011;32800;44.876;13.880;2023-05-01T03:12:57;1.50;;;1.40;;
11418;SDS011;32800;44.876;13.880;2023-05-01T03:15:23;1.57;;;1.30;;
11418;SDS011;32800;44.876;13.880;2023-05-01T03:17:49;1.93;;;1.60;;
11418;SDS011;32800;44.876;13.880;2023-05-01T03:20:14;1.50;;;1.40;;
11418;SDS011;32800;44.876;13.880;2023-05-01T03:22:40;1.70;;;1.60;;
11418;SDS011;32800;44.876;13.880;2023-05-01T03:25:05;1.60;;;1.50;;
11418;SDS011;32800;44.876;13.880;2023-05-01T03:27:31;1.40;;;1.30;;
11418;SDS011;32800;44.876;13.880;2023-05-01T03:29:57;1.43;;;1.33;;
11418;SDS011;32800;44.876;13.880;2023-05-01T03:32:22;1.60;;;1.50;;
11418;SDS011;32800;44.876;13.880;2023-05-01T03:34:48;1.77;;;1.67;;
11418;SDS011;32800;44.876;13.880;2023-05-01T03:37:13;1.60;;;1.50;;
11418;SDS011;32800;44.876;13.880;2023-05-01T03:39:39;1.57;;;1.47;;
11418;SDS011;32800;44.876;13.880;2023-05-01T03:42:05;1.50;;;1.40;;
11418;SDS011;32800;44.876;13.880;2023-05-01T03:44:31;1.77;;;1.50;;
11418;SDS011;32800;44.876;13.880;2023-05-01T03:46:56;1.60;;;1.47;;
11418;SDS011;32800;44.876;13.880;2023-05-01T03:49:22;1.63;;;1.53;;
11418;SDS011;32800;44.876;13.880;2023-05-01T03:51:48;1.60;;;1.50;;
11418;SDS011;32800;44.876;13.880;2023-05-01T03:54:13;1.13;;;1.10;;
11418;SDS011;32800;44.876;13.880;2023-05-01T03:56:39;1.50;;;1.40;;
11418;SDS011;32800;44.876;13.880;2023-05-01T03:59:05;1.67;;;1.57;;
11418;SDS011;32800;44.876;13.880;2023-05-01T04:01:31;2.37;;;1.73;;
11418;SDS011;32800;44.876;13.880;2023-05-01T04:03:57;1.30;;;1.20;;
11418;SDS011;32800;44.876;13.880;2023-05-01T04:06:23;1.40;;;1.30;;
11418;SDS011;32800;44.876;13.880;2023-05-01T04:08:50;1.50;;;1.40;;
11418;SDS011;32800;44.876;13.880;2023-05-01T04:11:15;1.40;;;1.30;;
11418;SDS011;32800;44.876;13.880;2023-05-01T04:13:41;1.23;;;1.13;;
11418;SDS011;32800;44.876;13.880;2023-05-01T04:16:06;1.40;;;1.30;;
11418;SDS011;32800;44.876;13.880;2023-05-01T04:18:32;1.47;;;1.37;;
11418;SDS011;32800;44.876;13.880;2023-05-01T04:20:57;1.47;;;1.20;;
11418;SDS011;32800;44.876;13.880;2023-05-01T04:23:23;1.40;;;1.30;;
11418;SDS011;32800;44.876;13.880;2023-05-01T04:25:48;1.70;;;1.60;;
11418;SDS011;32800;44.876;13.880;2023-05-01T04:28:14;1.77;;;1.40;;
11418;SDS011;32800;44.876;13.880;2023-05-01T04:30:39;1.87;;;1.60;;
11418;SDS011;32800;44.876;13.880;2023-05-01T04:33:05;1.97;;;1.60;;
11418;SDS011;32800;44.876;13.880;2023-05-01T04:35:38;1.33;;;1.23;;
11418;SDS011;32800;44.876;13.880;2023-05-01T04:38:05;1.60;;;1.50;;
11418;SDS011;32800;44.876;13.880;2023-05-01T04:40:31;1.50;;;1.40;;
11418;SDS011;32800;44.876;13.880;2023-05-01T04:42:56;1.73;;;1.50;;
11418;SDS011;32800;44.876;13.880;2023-05-01T04:45:22;1.30;;;1.20;;
11418;SDS011;32800;44.876;13.880;2023-05-01T04:47:48;1.53;;;1.43;;
11418;SDS011;32800;44.876;13.880;2023-05-01T04:50:13;1.40;;;1.30;;
11418;SDS011;32800;44.876;13.880;2023-05-01T04:52:39;1.73;;;1.30;;
11418;SDS011;32800;44.876;13.880;2023-05-01T04:55:05;1.60;;;1.50;;
11418;SDS011;32800;44.876;13.880;2023-05-01T04:57:31;1.63;;;1.53;;
11418;SDS011;32800;44.876;13.880;2023-05-01T04:59:56;1.30;;;1.20;;
11418;SDS011;32800;44.876;13.880;2023-05-01T05:02:22;1.50;;;1.40;;
11418;SDS011;32800;44.876;13.880;2023-05-01T05:04:47;1.40;;;1.30;;
11418;SDS011;32800;44.876;13.880;2023-05-01T05:07:13;1.57;;;1.47;;
11418;SDS011;32800;44.876;13.880;2023-05-01T05:09:38;1.57;;;1.47;;
11418;SDS011;32800;44.876;13.880;2023-05-01T05:12:04;1.30;;;1.30;;
11418;SDS011;32800;44.876;13.880;2023-05-01T05:14:30;1.53;;;1.20;;
11418;SDS011;32800;44.876;13.880;2023-05-01T05:16:55;1.47;;;1.37;;
11418;SDS011;32800;44.876;13.880;2023-05-01T05:19:21;1.70;;;1.60;;
11418;SDS011;32800;44.876;13.880;2023-05-01T05:21:47;1.47;;;1.37;;
11418;SDS011;32800;44.876;13.880;2023-05-01T05:24:13;1.40;;;1.30;;
11418;SDS011;32800;44.876;13.880;2023-05-01T05:26:38;1.50;;;1.30;;
11418;SDS011;32800;44.876;13.880;2023-05-01T05:29:04;1.30;;;1.20;;
11418;SDS011;32800;44.876;13.880;2023-05-01T05:31:30;1.50;;;1.40;;
11418;SDS011;32800;44.876;13.880;2023-05-01T05:33:55;1.43;;;1.33;;
11418;SDS011;32800;44.876;13.880;2023-05-01T05:36:21;1.60;;;1.50;;
11418;SDS011;32800;44.876;13.880;2023-05-01T05:38:46;1.40;;;1.30;;
11418;SDS011;32800;44.876;13.880;2023-05-01T05:41:12;1.50;;;1.40;;
11418;SDS011;32800;44.876;13.880;2023-05-01T05:43:37;1.60;;;1.50;;
11418;SDS011;32800;44.876;13.880;2023-05-01T05:46:03;2.17;;;1.40;;
11418;SDS011;32800;44.876;13.880;2023-05-01T05:48:28;7.87;;;1.60;;
11418;SDS011;32800;44.876;13.880;2023-05-01T05:50:54;4.00;;;1.70;;
11418;SDS011;32800;44.876;13.880;2023-05-01T05:53:20;1.60;;;1.50;;
11418;SDS011;32800;44.876;13.880;2023-05-01T05:55:46;1.73;;;1.60;;
11418;SDS011;32800;44.876;13.880;2023-05-01T05:58:12;1.60;;;1.50;;
11418;SDS011;32800;44.876;13.880;2023-05-01T06:00:44;1.60;;;1.50;;
11418;SDS011;32800;44.876;13.880;2023-05-01T06:03:12;3.00;;;1.73;;
11418;SDS011;32800;44.876;13.880;2023-05-01T06:05:38;3.20;;;1.63;;
11418;SDS011;32800;44.876;13.880;2023-05-01T06:08:04;2.13;;;1.70;;
11418;SDS011;32800;44.876;13.880;2023-05-01T06:10:29;2.70;;;1.43;;
11418;SDS011;32800;44.876;13.880;2023-05-01T06:12:55;14.73;;;1.73;;
11418;SDS011;32800;44.876;13.880;2023-05-01T06:15:21;1.17;;;1.07;;
11418;SDS011;32800;44.876;13.880;2023-05-01T06:17:48;2.10;;;1.43;;
11418;SDS011;32800;44.876;13.880;2023-05-01T06:20:14;1.90;;;1.70;;
11418;SDS011;32800;44.876;13.880;2023-05-01T06:22:40;1.93;;;1.73;;
11418;SDS011;32800;44.876;13.880;2023-05-01T06:25:06;2.83;;;1.63;;
11418;SDS011;32800;44.876;13.880;2023-05-01T06:27:32;2.57;;;1.20;;
11418;SDS011;32800;44.876;13.880;2023-05-01T06:29:57;1.60;;;1.50;;
11418;SDS011;32800;44.876;13.880;2023-05-01T06:32:23;2.57;;;1.70;;
11418;SDS011;32800;44.876;13.880;2023-05-01T06:34:48;1.50;;;1.40;;
11418;SDS011;32800;44.876;13.880;2023-05-01T06:37:14;1.90;;;1.53;;
11418;SDS011;32800;44.876;13.880;2023-05-01T06:39:40;3.37;;;1.57;;
11418;SDS011;32800;44.876;13.880;2023-05-01T06:42:05;2.40;;;1.67;;
11418;SDS011;32800;44.876;13.880;2023-05-01T06:44:31;2.43;;;1.50;;
11418;SDS011;32800;44.876;13.880;2023-05-01T06:46:57;1.80;;;1.70;;
11418;SDS011;32800;44.876;13.880;2023-05-01T06:49:25;1.83;;;1.70;;
11418;SDS011;32800;44.876;13.880;2023-05-01T06:51:51;4.03;;;2.07;;
11418;SDS011;32800;44.876;13.880;2023-05-01T06:54:17;2.60;;;1.80;;
11418;SDS011;32800;44.876;13.880;2023-05-01T06:56:42;2.20;;;1.70;;
11418;SDS011;32800;44.876;13.880;2023-05-01T06:59:08;2.10;;;1.90;;
11418;SDS011;32800;44.876;13.880;2023-05-01T07:01:33;2.57;;;1.80;;
11418;SDS011;32800;44.876;13.880;2023-05-01T07:03:59;2.10;;;1.40;;
11418;SDS011;32800;44.876;13.880;2023-05-01T07:06:24;1.97;;;1.50;;
11418;SDS011;32800;44.876;13.880;2023-05-01T07:08:51;4.40;;;2.00;;
11418;SDS011;32800;44.876;13.880;2023-05-01T07:11:17;1.97;;;1.70;;
11418;SDS011;32800;44.876;13.880;2023-05-01T07:13:43;3.00;;;1.70;;
11418;SDS011;32800;44.876;13.880;2023-05-01T07:16:08;3.73;;;1.97;;
11418;SDS011;32800;44.876;13.880;2023-05-01T07:18:34;2.37;;;1.80;;
11418;SDS011;32800;44.876;13.880;2023-05-01T07:20:59;4.13;;;2.00;;
11418;SDS011;32800;44.876;13.880;2023-05-01T07:23:25;2.47;;;1.97;;
11418;SDS011;32800;44.876;13.880;2023-05-01T07:25:51;2.20;;;1.57;;
11418;SDS011;32800;44.876;13.880;2023-05-01T07:28:17;2.77;;;1.80;;
11418;SDS011;32800;44.876;13.880;2023-05-01T07:30:44;2.57;;;2.03;;
11418;SDS011;32800;44.876;13.880;2023-05-01T07:33:09;2.17;;;1.77;;
11418;SDS011;32800;44.876;13.880;2023-05-01T07:35:36;3.00;;;2.00;;
11418;SDS011;32800;44.876;13.880;2023-05-01T07:38:01;1.93;;;1.60;;
11418;SDS011;32800;44.876;13.880;2023-05-01T07:40:27;2.23;;;1.90;;
11418;SDS011;32800;44.876;13.880;2023-05-01T07:42:52;2.37;;;1.83;;
11418;SDS011;32800;44.876;13.880;2023-05-01T07:45:18;2.50;;;1.93;;
11418;SDS011;32800;44.876;13.880;2023-05-01T07:47:43;3.53;;;1.90;;
11418;SDS011;32800;44.876;13.880;2023-05-01T07:50:09;3.00;;;1.90;;
11418;SDS011;32800;44.876;13.880;2023-05-01T07:52:36;1.93;;;1.73;;
11418;SDS011;32800;44.876;13.880;2023-05-01T07:55:02;2.60;;;1.90;;
11418;SDS011;32800;44.876;13.880;2023-05-01T07:57:27;2.47;;;1.83;;
11418;SDS011;32800;44.876;13.880;2023-05-01T07:59:54;2.70;;;1.97;;
11418;SDS011;32800;44.876;13.880;2023-05-01T08:02:22;2.20;;;1.73;;
11418;SDS011;32800;44.876;13.880;2023-05-01T08:04:48;1.60;;;1.50;;
11418;SDS011;32800;44.876;13.880;2023-05-01T08:07:14;3.10;;;1.80;;
11418;SDS011;32800;44.876;13.880;2023-05-01T08:09:39;2.27;;;1.87;;
11418;SDS011;32800;44.876;13.880;2023-05-01T08:12:05;1.97;;;1.77;;
11418;SDS011;32800;44.876;13.880;2023-05-01T08:14:31;3.17;;;1.67;;
11418;SDS011;32800;44.876;13.880;2023-05-01T08:16:56;1.87;;;1.70;;
11418;SDS011;32800;44.876;13.880;2023-05-01T08:19:22;4.43;;;2.00;;
11418;SDS011;32800;44.876;13.880;2023-05-01T08:21:47;2.03;;;1.60;;
11418;SDS011;32800;44.876;13.880;2023-05-01T08:24:13;2.67;;;1.63;;
11418;SDS011;32800;44.876;13.880;2023-05-01T08:26:38;2.10;;;1.80;;
11418;SDS011;32800;44.876;13.880;2023-05-01T08:29:04;1.97;;;1.60;;
11418;SDS011;32800;44.876;13.880;2023-05-01T08:31:29;2.33;;;1.67;;
11418;SDS011;32800;44.876;13.880;2023-05-01T08:33:55;1.97;;;1.60;;
11418;SDS011;32800;44.876;13.880;2023-05-01T08:36:21;2.27;;;1.60;;
11418;SDS011;32800;44.876;13.880;2023-05-01T08:38:46;1.87;;;1.63;;
11418;SDS011;32800;44.876;13.880;2023-05-01T08:41:19;3.33;;;1.67;;
11418;SDS011;32800;44.876;13.880;2023-05-01T08:43:45;2.17;;;1.60;;
11418;SDS011;32800;44.876;13.880;2023-05-01T08:46:11;2.00;;;1.80;;
11418;SDS011;32800;44.876;13.880;2023-05-01T08:48:38;1.80;;;1.63;;
11418;SDS011;32800;44.876;13.880;2023-05-01T08:51:07;2.27;;;1.60;;
11418;SDS011;32800;44.876;13.880;2023-05-01T08:53:34;2.73;;;1.50;;
11418;SDS011;32800;44.876;13.880;2023-05-01T08:56:02;2.53;;;1.60;;
11418;SDS011;32800;44.876;13.880;2023-05-01T08:58:31;3.07;;;1.53;;
11418;SDS011;32800;44.876;13.880;2023-05-01T09:00:58;1.60;;;1.47;;
11418;SDS011;32800;44.876;13.880;2023-05-01T09:03:25;2.87;;;1.80;;
11418;SDS011;32800;44.876;13.880;2023-05-01T09:05:52;2.83;;;1.87;;
11418;SDS011;32800;44.876;13.880;2023-05-01T09:08:18;1.67;;;1.53;;
11418;SDS011;32800;44.876;13.880;2023-05-01T09:10:44;1.53;;;1.40;;
11418;SDS011;32800;44.876;13.880;2023-05-01T09:13:12;1.53;;;1.43;;
11418;SDS011;32800;44.876;13.880;2023-05-01T09:15:38;2.27;;;1.80;;
11418;SDS011;32800;44.876;13.880;2023-05-01T09:18:03;2.17;;;1.60;;
11418;SDS011;32800;44.876;13.880;2023-05-01T09:20:29;3.27;;;1.60;;
11418;SDS011;32800;44.876;13.880;2023-05-01T09:22:55;2.57;;;1.47;;
11418;SDS011;32800;44.876;13.880;2023-05-01T09:25:21;1.63;;;1.30;;
11418;SDS011;32800;44.876;13.880;2023-05-01T09:27:47;1.87;;;1.67;;
11418;SDS011;32800;44.876;13.880;2023-05-01T09:33:08;3.10;;;1.47;;
11418;SDS011;32800;44.876;13.880;2023-05-01T09:38:21;2.13;;;1.70;;
11418;SDS011;32800;44.876;13.880;2023-05-01T09:40:48;6.20;;;1.87;;
11418;SDS011;32800;44.876;13.880;2023-05-01T09:43:22;2.63;;;1.77;;
11418;SDS011;32800;44.876;13.880;2023-05-01T09:46:05;5.70;;;2.10;;
11418;SDS011;32800;44.876;13.880;2023-05-01T09:48:33;6.70;;;2.00;;
11418;SDS011;32800;44.876;13.880;2023-05-01T09:50:59;2.17;;;1.70;;
11418;SDS011;32800;44.876;13.880;2023-05-01T09:53:32;3.73;;;1.90;;
11418;SDS011;32800;44.876;13.880;2023-05-01T09:56:02;6.17;;;1.80;;
11418;SDS011;32800;44.876;13.880;2023-05-01T09:58:27;2.83;;;1.80;;
11418;SDS011;32800;44.876;13.880;2023-05-01T10:00:53;6.20;;;2.00;;
11418;SDS011;32800;44.876;13.880;2023-05-01T10:03:18;3.17;;;1.60;;
11418;SDS011;32800;44.876;13.880;2023-05-01T10:05:44;5.23;;;1.90;;
11418;SDS011;32800;44.876;13.880;2023-05-01T10:08:10;2.40;;;1.70;;
11418;SDS011;32800;44.876;13.880;2023-05-01T10:10:39;2.37;;;1.70;;
11418;SDS011;32800;44.876;13.880;2023-05-01T10:13:17;2.90;;;1.80;;
11418;SDS011;32800;44.876;13.880;2023-05-01T10:15:43;2.10;;;1.53;;
11418;SDS011;32800;44.876;13.880;2023-05-01T10:18:10;2.17;;;1.90;;
11418;SDS011;32800;44.876;13.880;2023-05-01T10:20:36;2.07;;;1.70;;
11418;SDS011;32800;44.876;13.880;2023-05-01T10:23:02;1.77;;;1.50;;
11418;SDS011;32800;44.876;13.880;2023-05-01T10:25:28;1.70;;;1.60;;
11418;SDS011;32800;44.876;13.880;2023-05-01T10:27:54;2.27;;;1.37;;
11418;SDS011;32800;44.876;13.880;2023-05-01T10:30:21;2.60;;;1.87;;
11418;SDS011;32800;44.876;13.880;2023-05-01T10:32:47;2.57;;;1.50;;
11418;SDS011;32800;44.876;13.880;2023-05-01T10:35:14;2.27;;;1.70;;
11418;SDS011;32800;44.876;13.880;2023-05-01T10:37:48;2.83;;;1.90;;
11418;SDS011;32800;44.876;13.880;2023-05-01T10:59:02;4.07;;;2.53;;
11418;SDS011;32800;44.876;13.880;2023-05-01T11:01:32;3.80;;;2.47;;
11418;SDS011;32800;44.876;13.880;2023-05-01T11:04:01;4.00;;;2.70;;
11418;SDS011;32800;44.876;13.880;2023-05-01T11:06:28;3.27;;;2.40;;
11418;SDS011;32800;44.876;13.880;2023-05-01T11:08:54;2.53;;;2.30;;
11418;SDS011;32800;44.876;13.880;2023-05-01T11:13:59;6.43;;;2.50;;
11418;SDS011;32800;44.876;13.880;2023-05-01T11:21:44;2.50;;;1.70;;
11418;SDS011;32800;44.876;13.880;2023-05-01T11:24:11;2.17;;;1.97;;
11418;SDS011;32800;44.876;13.880;2023-05-01T11:26:40;3.20;;;1.90;;
11418;SDS011;32800;44.876;13.880;2023-05-01T11:29:07;2.47;;;1.90;;
11418;SDS011;32800;44.876;13.880;2023-05-01T11:31:34;4.60;;;1.80;;
11418;SDS011;32800;44.876;13.880;2023-05-01T11:34:00;2.13;;;1.63;;
11418;SDS011;32800;44.876;13.880;2023-05-01T11:36:27;2.03;;;1.90;;
11418;SDS011;32800;44.876;13.880;2023-05-01T11:38:54;2.30;;;2.10;;
11418;SDS011;32800;44.876;13.880;2023-05-01T11:41:27;2.23;;;1.70;;
11418;SDS011;32800;44.876;13.880;2023-05-01T11:43:53;2.97;;;1.83;;
11418;SDS011;32800;44.876;13.880;2023-05-01T11:48:51;2.40;;;1.90;;
11418;SDS011;32800;44.876;13.880;2023-05-01T11:51:17;2.47;;;2.10;;
11418;SDS011;32800;44.876;13.880;2023-05-01T11:53:56;1.90;;;1.80;;
11418;SDS011;32800;44.876;13.880;2023-05-01T11:56:25;2.13;;;1.93;;
11418;SDS011;32800;44.876;13.880;2023-05-01T11:58:51;2.70;;;2.03;;
11418;SDS011;32800;44.876;13.880;2023-05-01T12:01:18;2.10;;;1.90;;
11418;SDS011;32800;44.876;13.880;2023-05-01T12:03:43;4.33;;;1.90;;
11418;SDS011;32800;44.876;13.880;2023-05-01T12:06:09;1.80;;;1.70;;
11418;SDS011;32800;44.876;13.880;2023-05-01T12:08:40;10.00;;;2.10;;
11418;SDS011;32800;44.876;13.880;2023-05-01T12:11:07;7.13;;;3.33;;
11418;SDS011;32800;44.876;13.880;2023-05-01T12:13:32;6.53;;;3.60;;
11418;SDS011;32800;44.876;13.880;2023-05-01T12:15:58;5.00;;;3.33;;
11418;SDS011;32800;44.876;13.880;2023-05-01T12:18:24;5.90;;;2.87;;
11418;SDS011;32800;44.876;13.880;2023-05-01T12:20:51;6.37;;;3.83;;
11418;SDS011;32800;44.876;13.880;2023-05-01T12:23:41;8.43;;;4.00;;
11418;SDS011;32800;44.876;13.880;2023-05-01T12:26:15;11.23;;;4.97;;
11418;SDS011;32800;44.876;13.880;2023-05-01T12:31:27;8.77;;;4.90;;
11418;SDS011;32800;44.876;13.880;2023-05-01T12:34:01;10.77;;;5.50;;
11418;SDS011;32800;44.876;13.880;2023-05-01T12:36:28;15.33;;;5.40;;
11418;SDS011;32800;44.876;13.880;2023-05-01T12:41:45;14.00;;;4.90;;
11418;SDS011;32800;44.876;13.880;2023-05-01T12:44:18;16.77;;;4.97;;
11418;SDS011;32800;44.876;13.880;2023-05-01T12:46:45;11.87;;;5.30;;
11418;SDS011;32800;44.876;13.880;2023-05-01T12:49:23;15.07;;;4.73;;
11418;SDS011;32800;44.876;13.880;2023-05-01T12:51:50;13.60;;;5.10;;
11418;SDS011;32800;44.876;13.880;2023-05-01T12:54:17;11.03;;;5.50;;
11418;SDS011;32800;44.876;13.880;2023-05-01T12:57:08;13.10;;;5.23;;
11418;SDS011;32800;44.876;13.880;2023-05-01T12:59:39;11.63;;;4.80;;
11418;SDS011;32800;44.876;13.880;2023-05-01T13:02:06;12.13;;;5.10;;
11418;SDS011;32800;44.876;13.880;2023-05-01T13:04:32;12.40;;;5.10;;
11418;SDS011;32800;44.876;13.880;2023-05-01T13:06:58;14.53;;;5.40;;
11418;SDS011;32800;44.876;13.880;2023-05-01T13:09:24;8.93;;;4.80;;
11418;SDS011;32800;44.876;13.880;2023-05-01T13:11:59;10.13;;;5.27;;
11418;SDS011;32800;44.876;13.880;2023-05-01T13:14:40;12.87;;;4.87;;
11418;SDS011;32800;44.876;13.880;2023-05-01T13:17:06;9.10;;;4.43;;
11418;SDS011;32800;44.876;13.880;2023-05-01T13:19:32;10.13;;;4.87;;
11418;SDS011;32800;44.876;13.880;2023-05-01T13:21:58;11.77;;;5.00;;
11418;SDS011;32800;44.876;13.880;2023-05-01T13:24:43;10.03;;;4.77;;
11418;SDS011;32800;44.876;13.880;2023-05-01T13:27:11;9.13;;;4.73;;
11418;SDS011;32800;44.876;13.880;2023-05-01T13:29:37;9.93;;;4.63;;
11418;SDS011;32800;44.876;13.880;2023-05-01T13:32:06;10.63;;;4.53;;
11418;SDS011;32800;44.876;13.880;2023-05-01T13:34:34;10.00;;;5.20;;
11418;SDS011;32800;44.876;13.880;2023-05-01T13:37:01;11.53;;;4.63;;
11418;SDS011;32800;44.876;13.880;2023-05-01T13:39:27;10.13;;;4.30;;
11418;SDS011;32800;44.876;13.880;2023-05-01T13:41:53;11.17;;;4.07;;
11418;SDS011;32800;44.876;13.880;2023-05-01T13:44:19;11.87;;;4.70;;
11418;SDS011;32800;44.876;13.880;2023-05-01T13:46:46;11.03;;;4.27;;
11418;SDS011;32800;44.876;13.880;2023-05-01T13:49:16;7.90;;;4.33;;
11418;SDS011;32800;44.876;13.880;2023-05-01T13:51:46;8.93;;;4.27;;
11418;SDS011;32800;44.876;13.880;2023-05-01T13:54:12;9.77;;;4.40;;
11418;SDS011;32800;44.876;13.880;2023-05-01T13:56:39;8.67;;;4.47;;
11418;SDS011;32800;44.876;13.880;2023-05-01T13:59:05;6.20;;;3.53;;
11418;SDS011;32800;44.876;13.880;2023-05-01T14:01:35;9.90;;;4.43;;
11418;SDS011;32800;44.876;13.880;2023-05-01T14:04:07;7.97;;;4.17;;
11418;SDS011;32800;44.876;13.880;2023-05-01T14:06:35;7.47;;;4.10;;
11418;SDS011;32800;44.876;13.880;2023-05-01T14:09:03;7.17;;;4.10;;
11418;SDS011;32800;44.876;13.880;2023-05-01T14:11:29;9.10;;;4.43;;
11418;SDS011;32800;44.876;13.880;2023-05-01T14:13:55;7.80;;;3.90;;
11418;SDS011;32800;44.876;13.880;2023-05-01T14:16:24;7.27;;;3.93;;
11418;SDS011;32800;44.876;13.880;2023-05-01T14:18:54;8.33;;;4.00;;
11418;SDS011;32800;44.876;13.880;2023-05-01T14:21:21;6.60;;;3.87;;
11418;SDS011;32800;44.876;13.880;2023-05-01T14:23:48;6.63;;;3.87;;
11418;SDS011;32800;44.876;13.880;2023-05-01T14:26:16;6.83;;;3.87;;
11418;SDS011;32800;44.876;13.880;2023-05-01T14:28:42;6.30;;;4.20;;
11418;SDS011;32800;44.876;13.880;2023-05-01T14:31:30;6.47;;;4.07;;
11418;SDS011;32800;44.876;13.880;2023-05-01T14:33:56;6.50;;;4.07;;
11418;SDS011;32800;44.876;13.880;2023-05-01T14:36:22;6.47;;;3.60;;
11418;SDS011;32800;44.876;13.880;2023-05-01T14:38:49;8.27;;;3.87;;
11418;SDS011;32800;44.876;13.880;2023-05-01T14:41:17;6.27;;;3.77;;
11418;SDS011;32800;44.876;13.880;2023-05-01T14:43:46;6.00;;;3.37;;
11418;SDS011;32800;44.876;13.880;2023-05-01T14:46:12;6.70;;;3.60;;
11418;SDS011;32800;44.876;13.880;2023-05-01T14:48:40;5.30;;;3.50;;
11418;SDS011;32800;44.876;13.880;2023-05-01T14:51:09;6.27;;;3.50;;
11418;SDS011;32800;44.876;13.880;2023-05-01T14:53:36;6.47;;;3.70;;
11418;SDS011;32800;44.876;13.880;2023-05-01T14:56:06;6.13;;;3.73;;
11418;SDS011;32800;44.876;13.880;2023-05-01T14:58:31;7.10;;;3.60;;
11418;SDS011;32800;44.876;13.880;2023-05-01T15:00:57;7.50;;;3.37;;
11418;SDS011;32800;44.876;13.880;2023-05-01T15:03:22;7.87;;;3.97;;
11418;SDS011;32800;44.876;13.880;2023-05-01T15:05:48;6.50;;;3.30;;
11418;SDS011;32800;44.876;13.880;2023-05-01T15:08:13;4.23;;;3.10;;
11418;SDS011;32800;44.876;13.880;2023-05-01T15:10:39;6.53;;;3.77;;
11418;SDS011;32800;44.876;13.880;2023-05-01T15:13:06;4.47;;;3.33;;
11418;SDS011;32800;44.876;13.880;2023-05-01T15:15:33;4.37;;;3.50;;
11418;SDS011;32800;44.876;13.880;2023-05-01T15:17:58;4.20;;;3.60;;
11418;SDS011;32800;44.876;13.880;2023-05-01T15:20:24;5.77;;;3.10;;
11418;SDS011;32800;44.876;13.880;2023-05-01T15:22:50;6.00;;;3.50;;
11418;SDS011;32800;44.876;13.880;2023-05-01T15:25:15;5.00;;;3.30;;
11418;SDS011;32800;44.876;13.880;2023-05-01T15:27:41;6.90;;;3.67;;
11418;SDS011;32800;44.876;13.880;2023-05-01T15:30:07;5.40;;;3.50;;
11418;SDS011;32800;44.876;13.880;2023-05-01T15:32:34;4.93;;;3.30;;
11418;SDS011;32800;44.876;13.880;2023-05-01T15:35:01;4.93;;;3.40;;